2109 UTC 30 June 2016 found at http://aviationweather.gov/adds/metars/
 
METAR text: KMNH 302057Z AUTO 31005KT 10SM -RA SCT030 BKN035 OVC075 17/12 A3034 RMK AO2 LTG DSNT NW
Conditions at: KMNH (MONUMENT/ELBERT , CO, US) observed 2057 UTC 30 June 2016
Temperature: 17.0°C (63°F)
Dewpoint: 12.0°C (54°F) [RH = 72%]
Pressure (altimeter): 30.34 inches Hg (1027.5 mb)
Winds: from the NW (310 degrees) at 6 MPH (5 knots; 2.6 m/s)
Visibility: 10 or more miles (16+ km)
Ceiling: 3500 feet AGL
Clouds: scattered clouds at 3000 feet AGL
broken clouds at 3500 feet AGL
overcast cloud deck at 7500 feet AGL
Weather: -RA  (light rain)

METAR text: KMNH 302037Z AUTO 30006KT 10SM RA SCT035 BKN075 OVC095 17/12 A3035 RMK AO2 LTG DSNT SW AND NW
Conditions at: KMNH (MONUMENT/ELBERT , CO, US) observed 2037 UTC 30 June 2016
Temperature: 17.0°C (63°F)
Dewpoint: 12.0°C (54°F) [RH = 72%]
Pressure (altimeter): 30.35 inches Hg (1027.9 mb)
Winds: from the WNW (300 degrees) at 7 MPH (6 knots; 3.1 m/s)
Visibility: 10 or more miles (16+ km)
Ceiling: 7500 feet AGL
Clouds: scattered clouds at 3500 feet AGL
broken clouds at 7500 feet AGL
overcast cloud deck at 9500 feet AGL
Weather: RA  (rain)

METAR text: KMNH 302017Z AUTO 32006KT 10SM BKN095 BKN120 18/11 A3036 RMK AO2
Conditions at: KMNH (MONUMENT/ELBERT , CO, US) observed 2017 UTC 30 June 2016
Temperature: 18.0°C (64°F)
Dewpoint: 11.0°C (52°F) [RH = 64%]
Pressure (altimeter): 30.36 inches Hg (1028.2 mb)
Winds: from the NW (320 degrees) at 7 MPH (6 knots; 3.1 m/s)
Visibility: 10 or more miles (16+ km)
Ceiling: 9500 feet AGL
Clouds: broken clouds at 9500 feet AGL
broken clouds at 12000 feet AGL
Weather: automated observation with no human augmentation;
there may or may not be significant weather present at this time

METAR text: KMNH 301957Z AUTO 33006KT 10SM SCT095 SCT120 20/11 A3034 RMK AO2 LTG DSNT SW AND W
Conditions at: KMNH (MONUMENT/ELBERT , CO, US) observed 1957 UTC 30 June 2016
Temperature: 20.0°C (68°F)
Dewpoint: 11.0°C (52°F) [RH = 56%]
Pressure (altimeter): 30.34 inches Hg (1027.5 mb)
Winds: from the NNW (330 degrees) at 7 MPH (6 knots; 3.1 m/s)
Visibility: 10 or more miles (16+ km)
Ceiling: at least 12,000 feet AGL
Clouds: scattered clouds at 9500 feet AGL
scattered clouds at 12000 feet AGL
Weather: automated observation with no human augmentation;
there may or may not be significant weather present at this time

METAR text: KMNH 301936Z AUTO 00000KT 10SM SCT095 SCT120 20/10 A3033 RMK AO2 LTG DSNT SW AND W
Conditions at: KMNH (MONUMENT/ELBERT , CO, US) observed 1936 UTC 30 June 2016
Temperature: 20.0°C (68°F)
Dewpoint: 10.0°C (50°F) [RH = 53%]
Pressure (altimeter): 30.33 inches Hg (1027.2 mb)
Winds: calm
Visibility: 10 or more miles (16+ km)
Ceiling: at least 12,000 feet AGL
Clouds: scattered clouds at 9500 feet AGL
scattered clouds at 12000 feet AGL
Weather: automated observation with no human augmentation;
there may or may not be significant weather present at this time

METAR text: KMNH 301916Z AUTO 06003KT 10SM CLR 20/11 A3033 RMK AO2 LTG DSNT SW AND W
Conditions at: KMNH (MONUMENT/ELBERT , CO, US) observed 1916 UTC 30 June 2016
Temperature: 20.0°C (68°F)
Dewpoint: 11.0°C (52°F) [RH = 56%]
Pressure (altimeter): 30.33 inches Hg (1027.2 mb)
Winds: from the ENE (60 degrees) at 3 MPH (3 knots; 1.6 m/s)
Visibility: 10 or more miles (16+ km)
Ceiling: at least 12,000 feet AGL
Clouds: sky clear below 12,000 feet AGL
Weather: automated observation with no human augmentation;
there may or may not be significant weather present at this time

METAR text: KMNH 301857Z AUTO 06004KT 10SM CLR 19/11 A3033 RMK AO2 LTG DSNT SW
Conditions at: KMNH (MONUMENT/ELBERT , CO, US) observed 1857 UTC 30 June 2016
Temperature: 19.0°C (66°F)
Dewpoint: 11.0°C (52°F) [RH = 60%]
Pressure (altimeter): 30.33 inches Hg (1027.2 mb)
Winds: from the ENE (60 degrees) at 5 MPH (4 knots; 2.1 m/s)
Visibility: 10 or more miles (16+ km)
Ceiling: at least 12,000 feet AGL
Clouds: sky clear below 12,000 feet AGL
Weather: automated observation with no human augmentation;
there may or may not be significant weather present at this time

METAR text: KMNH 301837Z AUTO 07003KT 10SM CLR 18/11 A3035 RMK AO2 LTG DSNT NW
Conditions at: KMNH (MONUMENT/ELBERT , CO, US) observed 1837 UTC 30 June 2016
Temperature: 18.0°C (64°F)
Dewpoint: 11.0°C (52°F) [RH = 64%]
Pressure (altimeter): 30.35 inches Hg (1027.9 mb)
Winds: from the ENE (70 degrees) at 3 MPH (3 knots; 1.6 m/s)
Visibility: 10 or more miles (16+ km)
Ceiling: at least 12,000 feet AGL
Clouds: sky clear below 12,000 feet AGL
Weather: automated observation with no human augmentation;
there may or may not be significant weather present at this time

METAR text: KMNH 301817Z AUTO 02005KT 10SM CLR 18/11 A3035 RMK AO2
Conditions at: KMNH (MONUMENT/ELBERT , CO, US) observed 1817 UTC 30 June 2016
Temperature: 18.0°C (64°F)
Dewpoint: 11.0°C (52°F) [RH = 64%]
Pressure (altimeter): 30.35 inches Hg (1027.9 mb)
Winds: from the NNE (20 degrees) at 6 MPH (5 knots; 2.6 m/s)
Visibility: 10 or more miles (16+ km)
Ceiling: at least 12,000 feet AGL
Clouds: sky clear below 12,000 feet AGL
Weather: automated observation with no human augmentation;
there may or may not be significant weather present at this time

METAR text: KMNH 301757Z AUTO 36007KT 10SM SCT095 18/11 A3035 RMK AO2
Conditions at: KMNH (MONUMENT/ELBERT , CO, US) observed 1757 UTC 30 June 2016
Temperature: 18.0°C (64°F)
Dewpoint: 11.0°C (52°F) [RH = 64%]
Pressure (altimeter): 30.35 inches Hg (1027.9 mb)
Winds: from the N (360 degrees) at 8 MPH (7 knots; 3.6 m/s)
Visibility: 10 or more miles (16+ km)
Ceiling: at least 12,000 feet AGL
Clouds: scattered clouds at 9500 feet AGL
Weather: automated observation with no human augmentation;
there may or may not be significant weather present at this time

METAR text: KMNH 301737Z AUTO 34007KT 10SM SCT110 17/10 A3035 RMK AO2
Conditions at: KMNH (MONUMENT/ELBERT , CO, US) observed 1737 UTC 30 June 2016
Temperature: 17.0°C (63°F)
Dewpoint: 10.0°C (50°F) [RH = 63%]
Pressure (altimeter): 30.35 inches Hg (1027.9 mb)
Winds: from the NNW (340 degrees) at 8 MPH (7 knots; 3.6 m/s)
Visibility: 10 or more miles (16+ km)
Ceiling: at least 12,000 feet AGL
Clouds: scattered clouds at 11000 feet AGL
Weather: automated observation with no human augmentation;
there may or may not be significant weather present at this time

METAR text: KMNH 301716Z AUTO 31007KT 10SM SCT090 OVC110 16/11 A3035 RMK AO2
Conditions at: KMNH (MONUMENT/ELBERT , CO, US) observed 1716 UTC 30 June 2016
Temperature: 16.0°C (61°F)
Dewpoint: 11.0°C (52°F) [RH = 72%]
Pressure (altimeter): 30.35 inches Hg (1027.9 mb)
Winds: from the NW (310 degrees) at 8 MPH (7 knots; 3.6 m/s)
Visibility: 10 or more miles (16+ km)
Ceiling: 11000 feet AGL
Clouds: scattered clouds at 9000 feet AGL
overcast cloud deck at 11000 feet AGL
Weather: automated observation with no human augmentation;
there may or may not be significant weather present at this time

METAR text: KMNH 301656Z AUTO 31008KT 10SM OVC090 17/11 A3035 RMK AO2
Conditions at: KMNH (MONUMENT/ELBERT , CO, US) observed 1656 UTC 30 June 2016
Temperature: 17.0°C (63°F)
Dewpoint: 11.0°C (52°F) [RH = 68%]
Pressure (altimeter): 30.35 inches Hg (1027.9 mb)
Winds: from the NW (310 degrees) at 9 MPH (8 knots; 4.2 m/s)
Visibility: 10 or more miles (16+ km)
Ceiling: 9000 feet AGL
Clouds: overcast cloud deck at 9000 feet AGL
Weather: automated observation with no human augmentation;
there may or may not be significant weather present at this time

METAR text: KMNH 301637Z AUTO 31010KT 10SM BKN090 18/11 A3035 RMK AO2
Conditions at: KMNH (MONUMENT/ELBERT , CO, US) observed 1637 UTC 30 June 2016
Temperature: 18.0°C (64°F)
Dewpoint: 11.0°C (52°F) [RH = 64%]
Pressure (altimeter): 30.35 inches Hg (1027.9 mb)
Winds: from the NW (310 degrees) at 12 MPH (10 knots; 5.2 m/s)
Visibility: 10 or more miles (16+ km)
Ceiling: 9000 feet AGL
Clouds: broken clouds at 9000 feet AGL
Weather: automated observation with no human augmentation;
there may or may not be significant weather present at this time

METAR text: KMNH 301617Z AUTO 31008KT 10SM OVC090 15/11 A3036 RMK AO2
Conditions at: KMNH (MONUMENT/ELBERT , CO, US) observed 1617 UTC 30 June 2016
Temperature: 15.0°C (59°F)
Dewpoint: 11.0°C (52°F) [RH = 77%]
Pressure (altimeter): 30.36 inches Hg (1028.2 mb)
Winds: from the NW (310 degrees) at 9 MPH (8 knots; 4.2 m/s)
Visibility: 10 or more miles (16+ km)
Ceiling: 9000 feet AGL
Clouds: overcast cloud deck at 9000 feet AGL
Weather: automated observation with no human augmentation;
there may or may not be significant weather present at this time

METAR text: KMNH 301557Z AUTO 31007KT 10SM OVC100 15/11 A3036 RMK AO2
Conditions at: KMNH (MONUMENT/ELBERT , CO, US) observed 1557 UTC 30 June 2016
Temperature: 15.0°C (59°F)
Dewpoint: 11.0°C (52°F) [RH = 77%]
Pressure (altimeter): 30.36 inches Hg (1028.2 mb)
Winds: from the NW (310 degrees) at 8 MPH (7 knots; 3.6 m/s)
Visibility: 10 or more miles (16+ km)
Ceiling: 10000 feet AGL
Clouds: overcast cloud deck at 10000 feet AGL
Weather: automated observation with no human augmentation;
there may or may not be significant weather present at this time

METAR text: KMNH 301537Z AUTO 31010KT 10SM BKN110 14/11 A3035 RMK AO2
Conditions at: KMNH (MONUMENT/ELBERT , CO, US) observed 1537 UTC 30 June 2016
Temperature: 14.0°C (57°F)
Dewpoint: 11.0°C (52°F) [RH = 82%]
Pressure (altimeter): 30.35 inches Hg (1027.9 mb)
Winds: from the NW (310 degrees) at 12 MPH (10 knots; 5.2 m/s)
Visibility: 10 or more miles (16+ km)
Ceiling: 11000 feet AGL
Clouds: broken clouds at 11000 feet AGL
Weather: automated observation with no human augmentation;
there may or may not be significant weather present at this time

METAR text: KMNH 301517Z AUTO 30009KT 10SM BKN110 13/10 A3035 RMK AO2
Conditions at: KMNH (MONUMENT/ELBERT , CO, US) observed 1517 UTC 30 June 2016
Temperature: 13.0°C (55°F)
Dewpoint: 10.0°C (50°F) [RH = 82%]
Pressure (altimeter): 30.35 inches Hg (1027.9 mb)
Winds: from the WNW (300 degrees) at 10 MPH (9 knots; 4.7 m/s)
Visibility: 10 or more miles (16+ km)
Ceiling: 11000 feet AGL
Clouds: broken clouds at 11000 feet AGL
Weather: automated observation with no human augmentation;
there may or may not be significant weather present at this time

METAR text: KMNH 301457Z AUTO 32008KT 10SM OVC110 13/10 A3035 RMK AO2
Conditions at: KMNH (MONUMENT/ELBERT , CO, US) observed 1457 UTC 30 June 2016
Temperature: 13.0°C (55°F)
Dewpoint: 10.0°C (50°F) [RH = 82%]
Pressure (altimeter): 30.35 inches Hg (1027.9 mb)
Winds: from the NW (320 degrees) at 9 MPH (8 knots; 4.2 m/s)
Visibility: 10 or more miles (16+ km)
Ceiling: 11000 feet AGL
Clouds: overcast cloud deck at 11000 feet AGL
Weather: automated observation with no human augmentation;
there may or may not be significant weather present at this time

METAR text: KMNH 301437Z AUTO 30009KT 10SM OVC110 13/11 A3034 RMK AO2
Conditions at: KMNH (MONUMENT/ELBERT , CO, US) observed 1437 UTC 30 June 2016
Temperature: 13.0°C (55°F)
Dewpoint: 11.0°C (52°F) [RH = 88%]
Pressure (altimeter): 30.34 inches Hg (1027.5 mb)
Winds: from the WNW (300 degrees) at 10 MPH (9 knots; 4.7 m/s)
Visibility: 10 or more miles (16+ km)
Ceiling: 11000 feet AGL
Clouds: overcast cloud deck at 11000 feet AGL
Weather: automated observation with no human augmentation;
there may or may not be significant weather present at this time

METAR text: KMNH 301417Z AUTO 29010KT 10SM BKN120 13/11 A3033 RMK AO2
Conditions at: KMNH (MONUMENT/ELBERT , CO, US) observed 1417 UTC 30 June 2016
Temperature: 13.0°C (55°F)
Dewpoint: 11.0°C (52°F) [RH = 88%]
Pressure (altimeter): 30.33 inches Hg (1027.2 mb)
Winds: from the WNW (290 degrees) at 12 MPH (10 knots; 5.2 m/s)
Visibility: 10 or more miles (16+ km)
Ceiling: 12000 feet AGL
Clouds: broken clouds at 12000 feet AGL
Weather: automated observation with no human augmentation;
there may or may not be significant weather present at this time

METAR text: KMNH 301357Z AUTO 30006KT 10SM SCT120 13/11 A3033 RMK AO2
Conditions at: KMNH (MONUMENT/ELBERT , CO, US) observed 1357 UTC 30 June 2016
Temperature: 13.0°C (55°F)
Dewpoint: 11.0°C (52°F) [RH = 88%]
Pressure (altimeter): 30.33 inches Hg (1027.2 mb)
Winds: from the WNW (300 degrees) at 7 MPH (6 knots; 3.1 m/s)
Visibility: 10 or more miles (16+ km)
Ceiling: at least 12,000 feet AGL
Clouds: scattered clouds at 12000 feet AGL
Weather: automated observation with no human augmentation;
there may or may not be significant weather present at this time

METAR text: KMNH 301337Z AUTO 28007KT 10SM CLR 13/10 A3033 RMK AO2
Conditions at: KMNH (MONUMENT/ELBERT , CO, US) observed 1337 UTC 30 June 2016
Temperature: 13.0°C (55°F)
Dewpoint: 10.0°C (50°F) [RH = 82%]
Pressure (altimeter): 30.33 inches Hg (1027.2 mb)
Winds: from the W (280 degrees) at 8 MPH (7 knots; 3.6 m/s)
Visibility: 10 or more miles (16+ km)
Ceiling: at least 12,000 feet AGL
Clouds: sky clear below 12,000 feet AGL
Weather: automated observation with no human augmentation;
there may or may not be significant weather present at this time

METAR text: KMNH 301317Z AUTO 29004KT 10SM CLR 13/08 A3032 RMK AO2
Conditions at: KMNH (MONUMENT/ELBERT , CO, US) observed 1317 UTC 30 June 2016
Temperature: 13.0°C (55°F)
Dewpoint: 8.0°C (46°F) [RH = 72%]
Pressure (altimeter): 30.32 inches Hg (1026.8 mb)
Winds: from the WNW (290 degrees) at 5 MPH (4 knots; 2.1 m/s)
Visibility: 10 or more miles (16+ km)
Ceiling: at least 12,000 feet AGL
Clouds: sky clear below 12,000 feet AGL
Weather: automated observation with no human augmentation;
there may or may not be significant weather present at this time

METAR text: KMNH 301257Z AUTO 32004KT 10SM SCT120 13/08 A3032 RMK AO2
Conditions at: KMNH (MONUMENT/ELBERT , CO, US) observed 1257 UTC 30 June 2016
Temperature: 13.0°C (55°F)
Dewpoint: 8.0°C (46°F) [RH = 72%]
Pressure (altimeter): 30.32 inches Hg (1026.8 mb)
Winds: from the NW (320 degrees) at 5 MPH (4 knots; 2.1 m/s)
Visibility: 10 or more miles (16+ km)
Ceiling: at least 12,000 feet AGL
Clouds: scattered clouds at 12000 feet AGL
Weather: automated observation with no human augmentation;
there may or may not be significant weather present at this time

METAR text: KMNH 301237Z AUTO 31006KT 10SM SCT120 12/09 A3032 RMK AO2
Conditions at: KMNH (MONUMENT/ELBERT , CO, US) observed 1237 UTC 30 June 2016
Temperature: 12.0°C (54°F)
Dewpoint: 9.0°C (48°F) [RH = 82%]
Pressure (altimeter): 30.32 inches Hg (1026.8 mb)
Winds: from the NW (310 degrees) at 7 MPH (6 knots; 3.1 m/s)
Visibility: 10 or more miles (16+ km)
Ceiling: at least 12,000 feet AGL
Clouds: scattered clouds at 12000 feet AGL
Weather: automated observation with no human augmentation;
there may or may not be significant weather present at this time

METAR text: KMNH 301217Z AUTO 20004KT 10SM CLR 13/08 A3030 RMK AO2
Conditions at: KMNH (MONUMENT/ELBERT , CO, US) observed 1217 UTC 30 June 2016
Temperature: 13.0°C (55°F)
Dewpoint: 8.0°C (46°F) [RH = 72%]
Pressure (altimeter): 30.30 inches Hg (1026.2 mb)
Winds: from the SSW (200 degrees) at 5 MPH (4 knots; 2.1 m/s)
Visibility: 10 or more miles (16+ km)
Ceiling: at least 12,000 feet AGL
Clouds: sky clear below 12,000 feet AGL
Weather: automated observation with no human augmentation;
there may or may not be significant weather present at this time

METAR text: KMNH 301157Z AUTO 17003KT 10SM CLR 12/08 A3029 RMK AO2
Conditions at: KMNH (MONUMENT/ELBERT , CO, US) observed 1157 UTC 30 June 2016
Temperature: 12.0°C (54°F)
Dewpoint: 8.0°C (46°F) [RH = 76%]
Pressure (altimeter): 30.29 inches Hg (1025.8 mb)
Winds: from the S (170 degrees) at 3 MPH (3 knots; 1.6 m/s)
Visibility: 10 or more miles (16+ km)
Ceiling: at least 12,000 feet AGL
Clouds: sky clear below 12,000 feet AGL
Weather: automated observation with no human augmentation;
there may or may not be significant weather present at this time

METAR text: KMNH 301136Z AUTO 18005KT 10SM SCT110 12/08 A3029 RMK AO2
Conditions at: KMNH (MONUMENT/ELBERT , CO, US) observed 1136 UTC 30 June 2016
Temperature: 12.0°C (54°F)
Dewpoint: 8.0°C (46°F) [RH = 76%]
Pressure (altimeter): 30.29 inches Hg (1025.8 mb)
Winds: from the S (180 degrees) at 6 MPH (5 knots; 2.6 m/s)
Visibility: 10 or more miles (16+ km)
Ceiling: at least 12,000 feet AGL
Clouds: scattered clouds at 11000 feet AGL
Weather: automated observation with no human augmentation;
there may or may not be significant weather present at this time

METAR text: KMNH 301117Z AUTO 19004KT 10SM SCT120 12/08 A3029 RMK AO2
Conditions at: KMNH (MONUMENT/ELBERT , CO, US) observed 1117 UTC 30 June 2016
Temperature: 12.0°C (54°F)
Dewpoint: 8.0°C (46°F) [RH = 76%]
Pressure (altimeter): 30.29 inches Hg (1025.8 mb)
Winds: from the S (190 degrees) at 5 MPH (4 knots; 2.1 m/s)
Visibility: 10 or more miles (16+ km)
Ceiling: at least 12,000 feet AGL
Clouds: scattered clouds at 12000 feet AGL
Weather: automated observation with no human augmentation;
there may or may not be significant weather present at this time

METAR text: KMNH 301057Z AUTO 19004KT 10SM SCT120 12/08 A3029 RMK AO2
Conditions at: KMNH (MONUMENT/ELBERT , CO, US) observed 1057 UTC 30 June 2016
Temperature: 12.0°C (54°F)
Dewpoint: 8.0°C (46°F) [RH = 76%]
Pressure (altimeter): 30.29 inches Hg (1025.8 mb)
Winds: from the S (190 degrees) at 5 MPH (4 knots; 2.1 m/s)
Visibility: 10 or more miles (16+ km)
Ceiling: at least 12,000 feet AGL
Clouds: scattered clouds at 12000 feet AGL
Weather: automated observation with no human augmentation;
there may or may not be significant weather present at this time

METAR text: KMNH 301036Z AUTO 20003KT 10SM CLR 12/08 A3029 RMK AO2
Conditions at: KMNH (MONUMENT/ELBERT , CO, US) observed 1036 UTC 30 June 2016
Temperature: 12.0°C (54°F)
Dewpoint: 8.0°C (46°F) [RH = 76%]
Pressure (altimeter): 30.29 inches Hg (1025.8 mb)
Winds: from the SSW (200 degrees) at 3 MPH (3 knots; 1.6 m/s)
Visibility: 10 or more miles (16+ km)
Ceiling: at least 12,000 feet AGL
Clouds: sky clear below 12,000 feet AGL
Weather: automated observation with no human augmentation;
there may or may not be significant weather present at this time

METAR text: KMNH 301017Z AUTO 20005KT 10SM CLR 12/08 A3029 RMK AO2
Conditions at: KMNH (MONUMENT/ELBERT , CO, US) observed 1017 UTC 30 June 2016
Temperature: 12.0°C (54°F)
Dewpoint: 8.0°C (46°F) [RH = 76%]
Pressure (altimeter): 30.29 inches Hg (1025.8 mb)
Winds: from the SSW (200 degrees) at 6 MPH (5 knots; 2.6 m/s)
Visibility: 10 or more miles (16+ km)
Ceiling: at least 12,000 feet AGL
Clouds: sky clear below 12,000 feet AGL
Weather: automated observation with no human augmentation;
there may or may not be significant weather present at this time

METAR text: KMNH 300957Z AUTO 20006KT 10SM CLR 12/08 A3029 RMK AO2
Conditions at: KMNH (MONUMENT/ELBERT , CO, US) observed 0957 UTC 30 June 2016
Temperature: 12.0°C (54°F)
Dewpoint: 8.0°C (46°F) [RH = 76%]
Pressure (altimeter): 30.29 inches Hg (1025.8 mb)
Winds: from the SSW (200 degrees) at 7 MPH (6 knots; 3.1 m/s)
Visibility: 10 or more miles (16+ km)
Ceiling: at least 12,000 feet AGL
Clouds: sky clear below 12,000 feet AGL
Weather: automated observation with no human augmentation;
there may or may not be significant weather present at this time

METAR text: KMNH 300937Z AUTO 20008KT 10SM CLR 12/08 A3029 RMK AO2
Conditions at: KMNH (MONUMENT/ELBERT , CO, US) observed 0937 UTC 30 June 2016
Temperature: 12.0°C (54°F)
Dewpoint: 8.0°C (46°F) [RH = 76%]
Pressure (altimeter): 30.29 inches Hg (1025.8 mb)
Winds: from the SSW (200 degrees) at 9 MPH (8 knots; 4.2 m/s)
Visibility: 10 or more miles (16+ km)
Ceiling: at least 12,000 feet AGL
Clouds: sky clear below 12,000 feet AGL
Weather: automated observation with no human augmentation;
there may or may not be significant weather present at this time

METAR text: KMNH 300917Z AUTO 20008KT 10SM CLR 12/08 A3029 RMK AO2
Conditions at: KMNH (MONUMENT/ELBERT , CO, US) observed 0917 UTC 30 June 2016
Temperature: 12.0°C (54°F)
Dewpoint: 8.0°C (46°F) [RH = 76%]
Pressure (altimeter): 30.29 inches Hg (1025.8 mb)
Winds: from the SSW (200 degrees) at 9 MPH (8 knots; 4.2 m/s)
Visibility: 10 or more miles (16+ km)
Ceiling: at least 12,000 feet AGL
Clouds: sky clear below 12,000 feet AGL
Weather: automated observation with no human augmentation;
there may or may not be significant weather present at this time

METAR text: KMNH 300856Z AUTO 20007KT 10SM CLR 12/08 A3029 RMK AO2
Conditions at: KMNH (MONUMENT/ELBERT , CO, US) observed 0856 UTC 30 June 2016
Temperature: 12.0°C (54°F)
Dewpoint: 8.0°C (46°F) [RH = 76%]
Pressure (altimeter): 30.29 inches Hg (1025.8 mb)
Winds: from the SSW (200 degrees) at 8 MPH (7 knots; 3.6 m/s)
Visibility: 10 or more miles (16+ km)
Ceiling: at least 12,000 feet AGL
Clouds: sky clear below 12,000 feet AGL
Weather: automated observation with no human augmentation;
there may or may not be significant weather present at this time

METAR text: KMNH 300836Z AUTO 20008KT 10SM CLR 12/08 A3030 RMK AO2
Conditions at: KMNH (MONUMENT/ELBERT , CO, US) observed 0836 UTC 30 June 2016
Temperature: 12.0°C (54°F)
Dewpoint: 8.0°C (46°F) [RH = 76%]
Pressure (altimeter): 30.30 inches Hg (1026.2 mb)
Winds: from the SSW (200 degrees) at 9 MPH (8 knots; 4.2 m/s)
Visibility: 10 or more miles (16+ km)
Ceiling: at least 12,000 feet AGL
Clouds: sky clear below 12,000 feet AGL
Weather: automated observation with no human augmentation;
there may or may not be significant weather present at this time

METAR text: KMNH 300817Z AUTO 21008KT 10SM CLR 12/08 A3031 RMK AO2
Conditions at: KMNH (MONUMENT/ELBERT , CO, US) observed 0817 UTC 30 June 2016
Temperature: 12.0°C (54°F)
Dewpoint: 8.0°C (46°F) [RH = 76%]
Pressure (altimeter): 30.31 inches Hg (1026.5 mb)
Winds: from the SSW (210 degrees) at 9 MPH (8 knots; 4.2 m/s)
Visibility: 10 or more miles (16+ km)
Ceiling: at least 12,000 feet AGL
Clouds: sky clear below 12,000 feet AGL
Weather: automated observation with no human augmentation;
there may or may not be significant weather present at this time

METAR text: KMNH 300756Z AUTO 19008KT 10SM CLR 12/08 A3032 RMK AO2
Conditions at: KMNH (MONUMENT/ELBERT , CO, US) observed 0756 UTC 30 June 2016
Temperature: 12.0°C (54°F)
Dewpoint: 8.0°C (46°F) [RH = 76%]
Pressure (altimeter): 30.32 inches Hg (1026.8 mb)
Winds: from the S (190 degrees) at 9 MPH (8 knots; 4.2 m/s)
Visibility: 10 or more miles (16+ km)
Ceiling: at least 12,000 feet AGL
Clouds: sky clear below 12,000 feet AGL
Weather: automated observation with no human augmentation;
there may or may not be significant weather present at this time

METAR text: KMNH 300737Z AUTO 21009KT 10SM CLR 12/08 A3033 RMK AO2 LTG DSNT NE
Conditions at: KMNH (MONUMENT/ELBERT , CO, US) observed 0737 UTC 30 June 2016
Temperature: 12.0°C (54°F)
Dewpoint: 8.0°C (46°F) [RH = 76%]
Pressure (altimeter): 30.33 inches Hg (1027.2 mb)
Winds: from the SSW (210 degrees) at 10 MPH (9 knots; 4.7 m/s)
Visibility: 10 or more miles (16+ km)
Ceiling: at least 12,000 feet AGL
Clouds: sky clear below 12,000 feet AGL
Weather: automated observation with no human augmentation;
there may or may not be significant weather present at this time

METAR text: KMNH 300716Z AUTO 20010KT 10SM CLR 13/07 A3034 RMK AO2
Conditions at: KMNH (MONUMENT/ELBERT , CO, US) observed 0716 UTC 30 June 2016
Temperature: 13.0°C (55°F)
Dewpoint: 7.0°C (45°F) [RH = 67%]
Pressure (altimeter): 30.34 inches Hg (1027.5 mb)
Winds: from the SSW (200 degrees) at 12 MPH (10 knots; 5.2 m/s)
Visibility: 10 or more miles (16+ km)
Ceiling: at least 12,000 feet AGL
Clouds: sky clear below 12,000 feet AGL
Weather: automated observation with no human augmentation;
there may or may not be significant weather present at this time

METAR text: KMNH 300656Z AUTO 20006KT 10SM SCT120 13/08 A3035 RMK AO2 LTG DSNT NE
Conditions at: KMNH (MONUMENT/ELBERT , CO, US) observed 0656 UTC 30 June 2016
Temperature: 13.0°C (55°F)
Dewpoint: 8.0°C (46°F) [RH = 72%]
Pressure (altimeter): 30.35 inches Hg (1027.9 mb)
Winds: from the SSW (200 degrees) at 7 MPH (6 knots; 3.1 m/s)
Visibility: 10 or more miles (16+ km)
Ceiling: at least 12,000 feet AGL
Clouds: scattered clouds at 12000 feet AGL
Weather: automated observation with no human augmentation;
there may or may not be significant weather present at this time

METAR text: KMNH 300637Z AUTO 18003KT 10SM CLR 13/09 A3036 RMK AO2 LTG DSNT NE
Conditions at: KMNH (MONUMENT/ELBERT , CO, US) observed 0637 UTC 30 June 2016
Temperature: 13.0°C (55°F)
Dewpoint: 9.0°C (48°F) [RH = 77%]
Pressure (altimeter): 30.36 inches Hg (1028.2 mb)
Winds: from the S (180 degrees) at 3 MPH (3 knots; 1.6 m/s)
Visibility: 10 or more miles (16+ km)
Ceiling: at least 12,000 feet AGL
Clouds: sky clear below 12,000 feet AGL
Weather: automated observation with no human augmentation;
there may or may not be significant weather present at this time

METAR text: KMNH 300617Z AUTO 23006KT 10SM SCT100 15/08 A3037 RMK AO2
Conditions at: KMNH (MONUMENT/ELBERT , CO, US) observed 0617 UTC 30 June 2016
Temperature: 15.0°C (59°F)
Dewpoint: 8.0°C (46°F) [RH = 63%]
Pressure (altimeter): 30.37 inches Hg (1028.5 mb)
Winds: from the SW (230 degrees) at 7 MPH (6 knots; 3.1 m/s)
Visibility: 10 or more miles (16+ km)
Ceiling: at least 12,000 feet AGL
Clouds: scattered clouds at 10000 feet AGL
Weather: automated observation with no human augmentation;
there may or may not be significant weather present at this time

METAR text: KMNH 300557Z AUTO 23007KT 10SM BKN100 14/09 A3038 RMK AO2
Conditions at: KMNH (MONUMENT/ELBERT , CO, US) observed 0557 UTC 30 June 2016
Temperature: 14.0°C (57°F)
Dewpoint: 9.0°C (48°F) [RH = 72%]
Pressure (altimeter): 30.38 inches Hg (1028.9 mb)
Winds: from the SW (230 degrees) at 8 MPH (7 knots; 3.6 m/s)
Visibility: 10 or more miles (16+ km)
Ceiling: 10000 feet AGL
Clouds: broken clouds at 10000 feet AGL
Weather: automated observation with no human augmentation;
there may or may not be significant weather present at this time

METAR text: KMNH 300537Z AUTO 17003KT 10SM SCT100 13/10 A3038 RMK AO2
Conditions at: KMNH (MONUMENT/ELBERT , CO, US) observed 0537 UTC 30 June 2016
Temperature: 13.0°C (55°F)
Dewpoint: 10.0°C (50°F) [RH = 82%]
Pressure (altimeter): 30.38 inches Hg (1028.9 mb)
Winds: from the S (170 degrees) at 3 MPH (3 knots; 1.6 m/s)
Visibility: 10 or more miles (16+ km)
Ceiling: at least 12,000 feet AGL
Clouds: scattered clouds at 10000 feet AGL
Weather: automated observation with no human augmentation;
there may or may not be significant weather present at this time

METAR text: KMNH 300517Z AUTO 17003KT 10SM CLR 13/09 A3036 RMK AO2 LTG DSNT SE
Conditions at: KMNH (MONUMENT/ELBERT , CO, US) observed 0517 UTC 30 June 2016
Temperature: 13.0°C (55°F)
Dewpoint: 9.0°C (48°F) [RH = 77%]
Pressure (altimeter): 30.36 inches Hg (1028.2 mb)
Winds: from the S (170 degrees) at 3 MPH (3 knots; 1.6 m/s)
Visibility: 10 or more miles (16+ km)
Ceiling: at least 12,000 feet AGL
Clouds: sky clear below 12,000 feet AGL
Weather: automated observation with no human augmentation;
there may or may not be significant weather present at this time

METAR text: KMNH 300457Z AUTO 17004KT 10SM CLR 15/08 A3036 RMK AO2
Conditions at: KMNH (MONUMENT/ELBERT , CO, US) observed 0457 UTC 30 June 2016
Temperature: 15.0°C (59°F)
Dewpoint: 8.0°C (46°F) [RH = 63%]
Pressure (altimeter): 30.36 inches Hg (1028.2 mb)
Winds: from the S (170 degrees) at 5 MPH (4 knots; 2.1 m/s)
Visibility: 10 or more miles (16+ km)
Ceiling: at least 12,000 feet AGL
Clouds: sky clear below 12,000 feet AGL
Weather: automated observation with no human augmentation;
there may or may not be significant weather present at this time

METAR text: KMNH 300437Z AUTO 22004KT 10SM CLR 15/09 A3036 RMK AO2
Conditions at: KMNH (MONUMENT/ELBERT , CO, US) observed 0437 UTC 30 June 2016
Temperature: 15.0°C (59°F)
Dewpoint: 9.0°C (48°F) [RH = 67%]
Pressure (altimeter): 30.36 inches Hg (1028.2 mb)
Winds: from the SW (220 degrees) at 5 MPH (4 knots; 2.1 m/s)
Visibility: 10 or more miles (16+ km)
Ceiling: at least 12,000 feet AGL
Clouds: sky clear below 12,000 feet AGL
Weather: automated observation with no human augmentation;
there may or may not be significant weather present at this time

METAR text: KMNH 300417Z AUTO 23007KT 10SM SCT110 15/10 A3037 RMK AO2
Conditions at: KMNH (MONUMENT/ELBERT , CO, US) observed 0417 UTC 30 June 2016
Temperature: 15.0°C (59°F)
Dewpoint: 10.0°C (50°F) [RH = 72%]
Pressure (altimeter): 30.37 inches Hg (1028.5 mb)
Winds: from the SW (230 degrees) at 8 MPH (7 knots; 3.6 m/s)
Visibility: 10 or more miles (16+ km)
Ceiling: at least 12,000 feet AGL
Clouds: scattered clouds at 11000 feet AGL
Weather: automated observation with no human augmentation;
there may or may not be significant weather present at this time

METAR text: KMNH 300356Z AUTO 21006KT 10SM BKN110 15/10 A3036 RMK AO2
Conditions at: KMNH (MONUMENT/ELBERT , CO, US) observed 0356 UTC 30 June 2016
Temperature: 15.0°C (59°F)
Dewpoint: 10.0°C (50°F) [RH = 72%]
Pressure (altimeter): 30.36 inches Hg (1028.2 mb)
Winds: from the SSW (210 degrees) at 7 MPH (6 knots; 3.1 m/s)
Visibility: 10 or more miles (16+ km)
Ceiling: 11000 feet AGL
Clouds: broken clouds at 11000 feet AGL
Weather: automated observation with no human augmentation;
there may or may not be significant weather present at this time

METAR text: KMNH 300337Z AUTO 18007KT 10SM SCT100 SCT120 16/09 A3035 RMK AO2
Conditions at: KMNH (MONUMENT/ELBERT , CO, US) observed 0337 UTC 30 June 2016
Temperature: 16.0°C (61°F)
Dewpoint: 9.0°C (48°F) [RH = 63%]
Pressure (altimeter): 30.35 inches Hg (1027.9 mb)
Winds: from the S (180 degrees) at 8 MPH (7 knots; 3.6 m/s)
Visibility: 10 or more miles (16+ km)
Ceiling: at least 12,000 feet AGL
Clouds: scattered clouds at 10000 feet AGL
scattered clouds at 12000 feet AGL
Weather: automated observation with no human augmentation;
there may or may not be significant weather present at this time

METAR text: KMNH 300317Z AUTO 15006KT 10SM SCT100 OVC120 16/09 A3034 RMK AO2 LTG DSNT N
Conditions at: KMNH (MONUMENT/ELBERT , CO, US) observed 0317 UTC 30 June 2016
Temperature: 16.0°C (61°F)
Dewpoint: 9.0°C (48°F) [RH = 63%]
Pressure (altimeter): 30.34 inches Hg (1027.5 mb)
Winds: from the SSE (150 degrees) at 7 MPH (6 knots; 3.1 m/s)
Visibility: 10 or more miles (16+ km)
Ceiling: 12000 feet AGL
Clouds: scattered clouds at 10000 feet AGL
overcast cloud deck at 12000 feet AGL
Weather: automated observation with no human augmentation;
there may or may not be significant weather present at this time

METAR text: KMNH 300257Z AUTO 14005KT 10SM BKN120 15/10 A3034 RMK AO2
Conditions at: KMNH (MONUMENT/ELBERT , CO, US) observed 0257 UTC 30 June 2016
Temperature: 15.0°C (59°F)
Dewpoint: 10.0°C (50°F) [RH = 72%]
Pressure (altimeter): 30.34 inches Hg (1027.5 mb)
Winds: from the SE (140 degrees) at 6 MPH (5 knots; 2.6 m/s)
Visibility: 10 or more miles (16+ km)
Ceiling: 12000 feet AGL
Clouds: broken clouds at 12000 feet AGL
Weather: automated observation with no human augmentation;
there may or may not be significant weather present at this time

METAR text: KMNH 300237Z AUTO 11006KT 10SM SCT120 16/09 A3034 RMK AO2 LTG DSNT NW
Conditions at: KMNH (MONUMENT/ELBERT , CO, US) observed 0237 UTC 30 June 2016
Temperature: 16.0°C (61°F)
Dewpoint: 9.0°C (48°F) [RH = 63%]
Pressure (altimeter): 30.34 inches Hg (1027.5 mb)
Winds: from the ESE (110 degrees) at 7 MPH (6 knots; 3.1 m/s)
Visibility: 10 or more miles (16+ km)
Ceiling: at least 12,000 feet AGL
Clouds: scattered clouds at 12000 feet AGL
Weather: automated observation with no human augmentation;
there may or may not be significant weather present at this time

METAR text: KMNH 300217Z AUTO 11009KT 10SM CLR 17/08 A3034 RMK AO2 LTG DSNT E AND SE
Conditions at: KMNH (MONUMENT/ELBERT , CO, US) observed 0217 UTC 30 June 2016
Temperature: 17.0°C (63°F)
Dewpoint: 8.0°C (46°F) [RH = 55%]
Pressure (altimeter): 30.34 inches Hg (1027.5 mb)
Winds: from the ESE (110 degrees) at 10 MPH (9 knots; 4.7 m/s)
Visibility: 10 or more miles (16+ km)
Ceiling: at least 12,000 feet AGL
Clouds: sky clear below 12,000 feet AGL
Weather: automated observation with no human augmentation;
there may or may not be significant weather present at this time

METAR text: KMNH 300156Z AUTO 11005KT 10SM CLR 18/09 A3033 RMK AO2
Conditions at: KMNH (MONUMENT/ELBERT , CO, US) observed 0156 UTC 30 June 2016
Temperature: 18.0°C (64°F)
Dewpoint: 9.0°C (48°F) [RH = 56%]
Pressure (altimeter): 30.33 inches Hg (1027.2 mb)
Winds: from the ESE (110 degrees) at 6 MPH (5 knots; 2.6 m/s)
Visibility: 10 or more miles (16+ km)
Ceiling: at least 12,000 feet AGL
Clouds: sky clear below 12,000 feet AGL
Weather: automated observation with no human augmentation;
there may or may not be significant weather present at this time

METAR text: KMNH 300136Z AUTO 00000KT 10SM CLR 20/07 A3031 RMK AO2 LTG DSNT E
Conditions at: KMNH (MONUMENT/ELBERT , CO, US) observed 0136 UTC 30 June 2016
Temperature: 20.0°C (68°F)
Dewpoint: 7.0°C (45°F) [RH = 43%]
Pressure (altimeter): 30.31 inches Hg (1026.5 mb)
Winds: calm
Visibility: 10 or more miles (16+ km)
Ceiling: at least 12,000 feet AGL
Clouds: sky clear below 12,000 feet AGL
Weather: automated observation with no human augmentation;
there may or may not be significant weather present at this time

METAR text: KMNH 300117Z AUTO 08003KT 10SM CLR 21/06 A3030 RMK AO2
Conditions at: KMNH (MONUMENT/ELBERT , CO, US) observed 0117 UTC 30 June 2016
Temperature: 21.0°C (70°F)
Dewpoint: 6.0°C (43°F) [RH = 38%]
Pressure (altimeter): 30.30 inches Hg (1026.2 mb)
Winds: from the E (80 degrees) at 3 MPH (3 knots; 1.6 m/s)
Visibility: 10 or more miles (16+ km)
Ceiling: at least 12,000 feet AGL
Clouds: sky clear below 12,000 feet AGL
Weather: automated observation with no human augmentation;
there may or may not be significant weather present at this time

METAR text: KMNH 300057Z AUTO 07007KT 10SM SCT055 SCT080 BKN100 21/05 A3031 RMK AO2 LTG DSNT E P0001
Conditions at: KMNH (MONUMENT/ELBERT , CO, US) observed 0057 UTC 30 June 2016
Temperature: 21.0°C (70°F)
Dewpoint: 5.0°C (41°F) [RH = 35%]
Pressure (altimeter): 30.31 inches Hg (1026.5 mb)
Winds: from the ENE (70 degrees) at 8 MPH (7 knots; 3.6 m/s)
Visibility: 10 or more miles (16+ km)
Ceiling: 10000 feet AGL
Clouds: scattered clouds at 5500 feet AGL
scattered clouds at 8000 feet AGL
broken clouds at 10000 feet AGL
Weather: automated observation with no human augmentation;
there may or may not be significant weather present at this time

METAR text: KMNH 300037Z AUTO 02011G20KT 10SM SCT080 BKN100 BKN120 18/08 A3032 RMK AO2 LTG DSNT E
Conditions at: KMNH (MONUMENT/ELBERT , CO, US) observed 0037 UTC 30 June 2016
Temperature: 18.0°C (64°F)
Dewpoint: 8.0°C (46°F) [RH = 52%]
Pressure (altimeter): 30.32 inches Hg (1026.8 mb)
Winds: from the NNE (20 degrees) at 13 MPH (11 knots; 5.7 m/sgusting to 23 MPH (20 knots; 10.4 m/s)
Visibility: 10 or more miles (16+ km)
Ceiling: 10000 feet AGL
Clouds: scattered clouds at 8000 feet AGL
broken clouds at 10000 feet AGL
broken clouds at 12000 feet AGL
Weather: automated observation with no human augmentation;
there may or may not be significant weather present at this time

METAR text: KMNH 300017Z AUTO 34013KT 10SM -RA BKN080 BKN110 17/08 A3033 RMK AO2 LTG DSNT NE
Conditions at: KMNH (MONUMENT/ELBERT , CO, US) observed 0017 UTC 30 June 2016
Temperature: 17.0°C (63°F)
Dewpoint: 8.0°C (46°F) [RH = 55%]
Pressure (altimeter): 30.33 inches Hg (1027.2 mb)
Winds: from the NNW (340 degrees) at 15 MPH (13 knots; 6.8 m/s)
Visibility: 10 or more miles (16+ km)
Ceiling: 8000 feet AGL
Clouds: broken clouds at 8000 feet AGL
broken clouds at 11000 feet AGL
Weather: -RA  (light rain)

METAR text: KMNH 292357Z AUTO 31017G25KT 10SM -RA BKN080 OVC110 16/09 A3033 RMK AO2 LTG DSNT N
Conditions at: KMNH (MONUMENT/ELBERT , CO, US) observed 2357 UTC 29 June 2016
Temperature: 16.0°C (61°F)
Dewpoint: 9.0°C (48°F) [RH = 63%]
Pressure (altimeter): 30.33 inches Hg (1027.2 mb)
Winds: from the NW (310 degrees) at 20 MPH (17 knots; 8.8 m/sgusting to 29 MPH (25 knots; 13.0 m/s)
Visibility: 10 or more miles (16+ km)
Ceiling: 8000 feet AGL
Clouds: broken clouds at 8000 feet AGL
overcast cloud deck at 11000 feet AGL
Weather: -RA  (light rain)

METAR text: KMNH 292337Z AUTO 35014G18KT 10SM -RA SCT080 OVC090 20/06 A3033 RMK AO2 LTG DSNT NW THRU NE
Conditions at: KMNH (MONUMENT/ELBERT , CO, US) observed 2337 UTC 29 June 2016
Temperature: 20.0°C (68°F)
Dewpoint: 6.0°C (43°F) [RH = 40%]
Pressure (altimeter): 30.33 inches Hg (1027.2 mb)
Winds: from the N (350 degrees) at 16 MPH (14 knots; 7.3 m/sgusting to 21 MPH (18 knots; 9.4 m/s)
Visibility: 10 or more miles (16+ km)
Ceiling: 9000 feet AGL
Clouds: scattered clouds at 8000 feet AGL
overcast cloud deck at 9000 feet AGL
Weather: -RA  (light rain)

METAR text: KMNH 292316Z AUTO 01010G18KT 10SM -RA SCT065 SCT080 OVC090 18/06 A3035 RMK AO2 LTG DSNT ALQS
Conditions at: KMNH (MONUMENT/ELBERT , CO, US) observed 2316 UTC 29 June 2016
Temperature: 18.0°C (64°F)
Dewpoint: 6.0°C (43°F) [RH = 45%]
Pressure (altimeter): 30.35 inches Hg (1027.9 mb)
Winds: from the N (10 degrees) at 12 MPH (10 knots; 5.2 m/sgusting to 21 MPH (18 knots; 9.4 m/s)
Visibility: 10 or more miles (16+ km)
Ceiling: 9000 feet AGL
Clouds: scattered clouds at 6500 feet AGL
scattered clouds at 8000 feet AGL
overcast cloud deck at 9000 feet AGL
Weather: -RA  (light rain)

METAR text: KMNH 292257Z AUTO 33019G26KT 10SM -TSRA SCT070 BKN080 OVC110 17/08 A3035 RMK AO2 LTG DSNT ALQS
Conditions at: KMNH (MONUMENT/ELBERT , CO, US) observed 2257 UTC 29 June 2016
Temperature: 17.0°C (63°F)
Dewpoint: 8.0°C (46°F) [RH = 55%]
Pressure (altimeter): 30.35 inches Hg (1027.9 mb)
Winds: from the NNW (330 degrees) at 22 MPH (19 knots; 9.9 m/sgusting to 30 MPH (26 knots; 13.5 m/s)
Visibility: 10 or more miles (16+ km)
Ceiling: 8000 feet AGL
Clouds: scattered clouds at 7000 feet AGL
broken clouds at 8000 feet AGL
overcast cloud deck at 11000 feet AGL
Weather: -TSRA  (light rain associated with thunderstorm(s))

METAR text: KMNH 292237Z AUTO 32016G35KT 10SM -RA SCT075 SCT090 OVC110 23/06 A3033 RMK AO2 LTG DSNT ALQS
Conditions at: KMNH (MONUMENT/ELBERT , CO, US) observed 2237 UTC 29 June 2016
Temperature: 23.0°C (73°F)
Dewpoint: 6.0°C (43°F) [RH = 33%]
Pressure (altimeter): 30.33 inches Hg (1027.2 mb)
Winds: from the NW (320 degrees) at 18 MPH (16 knots; 8.3 m/sgusting to 40 MPH (35 knots; 18.2 m/s)
Visibility: 10 or more miles (16+ km)
Ceiling: 11000 feet AGL
Clouds: scattered clouds at 7500 feet AGL
scattered clouds at 9000 feet AGL
overcast cloud deck at 11000 feet AGL
Weather: -RA  (light rain)

METAR text: KMNH 292217Z AUTO 00000KT 10SM SCT120 24/07 A3031 RMK AO2 LTG DSNT SW
Conditions at: KMNH (MONUMENT/ELBERT , CO, US) observed 2217 UTC 29 June 2016
Temperature: 24.0°C (75°F)
Dewpoint: 7.0°C (45°F) [RH = 34%]
Pressure (altimeter): 30.31 inches Hg (1026.5 mb)
Winds: calm
Visibility: 10 or more miles (16+ km)
Ceiling: at least 12,000 feet AGL
Clouds: scattered clouds at 12000 feet AGL
Weather: automated observation with no human augmentation;
there may or may not be significant weather present at this time

METAR text: KMNH 292156Z AUTO 12005KT 10SM CLR 25/07 A3031 RMK AO2 LTG DSNT N
Conditions at: KMNH (MONUMENT/ELBERT , CO, US) observed 2156 UTC 29 June 2016
Temperature: 25.0°C (77°F)
Dewpoint: 7.0°C (45°F) [RH = 32%]
Pressure (altimeter): 30.31 inches Hg (1026.5 mb)
Winds: from the ESE (120 degrees) at 6 MPH (5 knots; 2.6 m/s)
Visibility: 10 or more miles (16+ km)
Ceiling: at least 12,000 feet AGL
Clouds: sky clear below 12,000 feet AGL
Weather: automated observation with no human augmentation;
there may or may not be significant weather present at this time

METAR text: KMNH 292137Z AUTO 07003KT 10SM CLR 25/04 A3031 RMK AO2
Conditions at: KMNH (MONUMENT/ELBERT , CO, US) observed 2137 UTC 29 June 2016
Temperature: 25.0°C (77°F)
Dewpoint: 4.0°C (39°F) [RH = 26%]
Pressure (altimeter): 30.31 inches Hg (1026.5 mb)
Winds: from the ENE (70 degrees) at 3 MPH (3 knots; 1.6 m/s)
Visibility: 10 or more miles (16+ km)
Ceiling: at least 12,000 feet AGL
Clouds: sky clear below 12,000 feet AGL
Weather: automated observation with no human augmentation;
there may or may not be significant weather present at this time

METAR text: KMNH 292117Z AUTO 11004KT 10SM CLR 26/03 A3031 RMK AO2
Conditions at: KMNH (MONUMENT/ELBERT , CO, US) observed 2117 UTC 29 June 2016
Temperature: 26.0°C (79°F)
Dewpoint: 3.0°C (37°F) [RH = 23%]
Pressure (altimeter): 30.31 inches Hg (1026.5 mb)
Winds: from the ESE (110 degrees) at 5 MPH (4 knots; 2.1 m/s)
Visibility: 10 or more miles (16+ km)
Ceiling: at least 12,000 feet AGL
Clouds: sky clear below 12,000 feet AGL
Weather: automated observation with no human augmentation;
there may or may not be significant weather present at this time

METAR text: KMNH 292057Z AUTO 07003KT 10SM CLR 26/04 A3031 RMK AO2 LTG DSNT SW
Conditions at: KMNH (MONUMENT/ELBERT , CO, US) observed 2057 UTC 29 June 2016
Temperature: 26.0°C (79°F)
Dewpoint: 4.0°C (39°F) [RH = 24%]
Pressure (altimeter): 30.31 inches Hg (1026.5 mb)
Winds: from the ENE (70 degrees) at 3 MPH (3 knots; 1.6 m/s)
Visibility: 10 or more miles (16+ km)
Ceiling: at least 12,000 feet AGL
Clouds: sky clear below 12,000 feet AGL
Weather: automated observation with no human augmentation;
there may or may not be significant weather present at this time

METAR text: KMNH 292035Z AUTO 07009KT 10SM CLR 27/02 A3030 RMK AO2
Conditions at: KMNH (MONUMENT/ELBERT , CO, US) observed 2035 UTC 29 June 2016
Temperature: 27.0°C (81°F)
Dewpoint: 2.0°C (36°F) [RH = 20%]
Pressure (altimeter): 30.30 inches Hg (1026.2 mb)
Winds: from the ENE (70 degrees) at 10 MPH (9 knots; 4.7 m/s)
Visibility: 10 or more miles (16+ km)
Ceiling: at least 12,000 feet AGL
Clouds: sky clear below 12,000 feet AGL
Weather: automated observation with no human augmentation;
there may or may not be significant weather present at this time

METAR text: KMNH 292016Z AUTO 05004KT 10SM CLR 27/05 A3031 RMK AO2 LTG DSNT N
Conditions at: KMNH (MONUMENT/ELBERT , CO, US) observed 2016 UTC 29 June 2016
Temperature: 27.0°C (81°F)
Dewpoint: 5.0°C (41°F) [RH = 24%]
Pressure (altimeter): 30.31 inches Hg (1026.5 mb)
Winds: from the NE (50 degrees) at 5 MPH (4 knots; 2.1 m/s)
Visibility: 10 or more miles (16+ km)
Ceiling: at least 12,000 feet AGL
Clouds: sky clear below 12,000 feet AGL
Weather: automated observation with no human augmentation;
there may or may not be significant weather present at this time

METAR text: KMNH 291957Z AUTO 02003KT 10SM CLR 26/05 A3032 RMK AO2
Conditions at: KMNH (MONUMENT/ELBERT , CO, US) observed 1957 UTC 29 June 2016
Temperature: 26.0°C (79°F)
Dewpoint: 5.0°C (41°F) [RH = 26%]
Pressure (altimeter): 30.32 inches Hg (1026.8 mb)
Winds: from the NNE (20 degrees) at 3 MPH (3 knots; 1.6 m/s)
Visibility: 10 or more miles (16+ km)
Ceiling: at least 12,000 feet AGL
Clouds: sky clear below 12,000 feet AGL
Weather: automated observation with no human augmentation;
there may or may not be significant weather present at this time

METAR text: KMNH 291936Z AUTO 00000KT 10SM CLR 27/06 A3032 RMK AO2 LTG DSNT SW
Conditions at: KMNH (MONUMENT/ELBERT , CO, US) observed 1936 UTC 29 June 2016
Temperature: 27.0°C (81°F)
Dewpoint: 6.0°C (43°F) [RH = 26%]
Pressure (altimeter): 30.32 inches Hg (1026.8 mb)
Winds: calm
Visibility: 10 or more miles (16+ km)
Ceiling: at least 12,000 feet AGL
Clouds: sky clear below 12,000 feet AGL
Weather: automated observation with no human augmentation;
there may or may not be significant weather present at this time

METAR text: KMNH 291917Z AUTO 06003KT 10SM CLR 26/06 A3033 RMK AO2
Conditions at: KMNH (MONUMENT/ELBERT , CO, US) observed 1917 UTC 29 June 2016
Temperature: 26.0°C (79°F)
Dewpoint: 6.0°C (43°F) [RH = 28%]
Pressure (altimeter): 30.33 inches Hg (1027.2 mb)
Winds: from the ENE (60 degrees) at 3 MPH (3 knots; 1.6 m/s)
Visibility: 10 or more miles (16+ km)
Ceiling: at least 12,000 feet AGL
Clouds: sky clear below 12,000 feet AGL
Weather: automated observation with no human augmentation;
there may or may not be significant weather present at this time

METAR text: KMNH 291857Z AUTO 05005KT 10SM CLR 26/06 A3034 RMK AO2
Conditions at: KMNH (MONUMENT/ELBERT , CO, US) observed 1857 UTC 29 June 2016
Temperature: 26.0°C (79°F)
Dewpoint: 6.0°C (43°F) [RH = 28%]
Pressure (altimeter): 30.34 inches Hg (1027.5 mb)
Winds: from the NE (50 degrees) at 6 MPH (5 knots; 2.6 m/s)
Visibility: 10 or more miles (16+ km)
Ceiling: at least 12,000 feet AGL
Clouds: sky clear below 12,000 feet AGL
Weather: automated observation with no human augmentation;
there may or may not be significant weather present at this time

METAR text: KMNH 291837Z AUTO 02003KT 10SM CLR 26/05 A3035 RMK AO2
Conditions at: KMNH (MONUMENT/ELBERT , CO, US) observed 1837 UTC 29 June 2016
Temperature: 26.0°C (79°F)
Dewpoint: 5.0°C (41°F) [RH = 26%]
Pressure (altimeter): 30.35 inches Hg (1027.9 mb)
Winds: from the NNE (20 degrees) at 3 MPH (3 knots; 1.6 m/s)
Visibility: 10 or more miles (16+ km)
Ceiling: at least 12,000 feet AGL
Clouds: sky clear below 12,000 feet AGL
Weather: automated observation with no human augmentation;
there may or may not be significant weather present at this time

METAR text: KMNH 291817Z AUTO 01005KT 10SM CLR 25/05 A3035 RMK AO2
Conditions at: KMNH (MONUMENT/ELBERT , CO, US) observed 1817 UTC 29 June 2016
Temperature: 25.0°C (77°F)
Dewpoint: 5.0°C (41°F) [RH = 28%]
Pressure (altimeter): 30.35 inches Hg (1027.9 mb)
Winds: from the N (10 degrees) at 6 MPH (5 knots; 2.6 m/s)
Visibility: 10 or more miles (16+ km)
Ceiling: at least 12,000 feet AGL
Clouds: sky clear below 12,000 feet AGL
Weather: automated observation with no human augmentation;
there may or may not be significant weather present at this time

METAR text: KMNH 291757Z AUTO 03004KT 10SM CLR 25/07 A3035 RMK AO2
Conditions at: KMNH (MONUMENT/ELBERT , CO, US) observed 1757 UTC 29 June 2016
Temperature: 25.0°C (77°F)
Dewpoint: 7.0°C (45°F) [RH = 32%]
Pressure (altimeter): 30.35 inches Hg (1027.9 mb)
Winds: from the NNE (30 degrees) at 5 MPH (4 knots; 2.1 m/s)
Visibility: 10 or more miles (16+ km)
Ceiling: at least 12,000 feet AGL
Clouds: sky clear below 12,000 feet AGL
Weather: automated observation with no human augmentation;
there may or may not be significant weather present at this time

METAR text: KMNH 291737Z AUTO 02006KT 10SM CLR 25/05 A3035 RMK AO2
Conditions at: KMNH (MONUMENT/ELBERT , CO, US) observed 1737 UTC 29 June 2016
Temperature: 25.0°C (77°F)
Dewpoint: 5.0°C (41°F) [RH = 28%]
Pressure (altimeter): 30.35 inches Hg (1027.9 mb)
Winds: from the NNE (20 degrees) at 7 MPH (6 knots; 3.1 m/s)
Visibility: 10 or more miles (16+ km)
Ceiling: at least 12,000 feet AGL
Clouds: sky clear below 12,000 feet AGL
Weather: automated observation with no human augmentation;
there may or may not be significant weather present at this time

METAR text: KMNH 291717Z AUTO 02005KT 10SM CLR 25/07 A3035 RMK AO2
Conditions at: KMNH (MONUMENT/ELBERT , CO, US) observed 1717 UTC 29 June 2016
Temperature: 25.0°C (77°F)
Dewpoint: 7.0°C (45°F) [RH = 32%]
Pressure (altimeter): 30.35 inches Hg (1027.9 mb)
Winds: from the NNE (20 degrees) at 6 MPH (5 knots; 2.6 m/s)
Visibility: 10 or more miles (16+ km)
Ceiling: at least 12,000 feet AGL
Clouds: sky clear below 12,000 feet AGL
Weather: automated observation with no human augmentation;
there may or may not be significant weather present at this time

METAR text: KMNH 291657Z AUTO 01007KT 10SM CLR 24/08 A3036 RMK AO2
Conditions at: KMNH (MONUMENT/ELBERT , CO, US) observed 1657 UTC 29 June 2016
Temperature: 24.0°C (75°F)
Dewpoint: 8.0°C (46°F) [RH = 36%]
Pressure (altimeter): 30.36 inches Hg (1028.2 mb)
Winds: from the N (10 degrees) at 8 MPH (7 knots; 3.6 m/s)
Visibility: 10 or more miles (16+ km)
Ceiling: at least 12,000 feet AGL
Clouds: sky clear below 12,000 feet AGL
Weather: automated observation with no human augmentation;
there may or may not be significant weather present at this time

METAR text: KMNH 291636Z AUTO 33008KT 10SM CLR 23/08 A3035 RMK AO2
Conditions at: KMNH (MONUMENT/ELBERT , CO, US) observed 1636 UTC 29 June 2016
Temperature: 23.0°C (73°F)
Dewpoint: 8.0°C (46°F) [RH = 38%]
Pressure (altimeter): 30.35 inches Hg (1027.9 mb)
Winds: from the NNW (330 degrees) at 9 MPH (8 knots; 4.2 m/s)
Visibility: 10 or more miles (16+ km)
Ceiling: at least 12,000 feet AGL
Clouds: sky clear below 12,000 feet AGL
Weather: automated observation with no human augmentation;
there may or may not be significant weather present at this time

METAR text: KMNH 291616Z AUTO 31006KT 10SM CLR 23/11 A3035 RMK AO2
Conditions at: KMNH (MONUMENT/ELBERT , CO, US) observed 1616 UTC 29 June 2016
Temperature: 23.0°C (73°F)
Dewpoint: 11.0°C (52°F) [RH = 47%]
Pressure (altimeter): 30.35 inches Hg (1027.9 mb)
Winds: from the NW (310 degrees) at 7 MPH (6 knots; 3.1 m/s)
Visibility: 10 or more miles (16+ km)
Ceiling: at least 12,000 feet AGL
Clouds: sky clear below 12,000 feet AGL
Weather: automated observation with no human augmentation;
there may or may not be significant weather present at this time

METAR text: KMNH 291556Z AUTO 30006KT 10SM CLR 23/11 A3035 RMK AO2
Conditions at: KMNH (MONUMENT/ELBERT , CO, US) observed 1556 UTC 29 June 2016
Temperature: 23.0°C (73°F)
Dewpoint: 11.0°C (52°F) [RH = 47%]
Pressure (altimeter): 30.35 inches Hg (1027.9 mb)
Winds: from the WNW (300 degrees) at 7 MPH (6 knots; 3.1 m/s)
Visibility: 10 or more miles (16+ km)
Ceiling: at least 12,000 feet AGL
Clouds: sky clear below 12,000 feet AGL
Weather: automated observation with no human augmentation;
there may or may not be significant weather present at this time

METAR text: KMNH 291537Z AUTO 28007KT 10SM CLR 22/10 A3035 RMK AO2
Conditions at: KMNH (MONUMENT/ELBERT , CO, US) observed 1537 UTC 29 June 2016
Temperature: 22.0°C (72°F)
Dewpoint: 10.0°C (50°F) [RH = 46%]
Pressure (altimeter): 30.35 inches Hg (1027.9 mb)
Winds: from the W (280 degrees) at 8 MPH (7 knots; 3.6 m/s)
Visibility: 10 or more miles (16+ km)
Ceiling: at least 12,000 feet AGL
Clouds: sky clear below 12,000 feet AGL
Weather: automated observation with no human augmentation;
there may or may not be significant weather present at this time

METAR text: KMNH 291516Z AUTO 26009KT 10SM CLR 21/11 A3034 RMK AO2
Conditions at: KMNH (MONUMENT/ELBERT , CO, US) observed 1516 UTC 29 June 2016
Temperature: 21.0°C (70°F)
Dewpoint: 11.0°C (52°F) [RH = 53%]
Pressure (altimeter): 30.34 inches Hg (1027.5 mb)
Winds: from the W (260 degrees) at 10 MPH (9 knots; 4.7 m/s)
Visibility: 10 or more miles (16+ km)
Ceiling: at least 12,000 feet AGL
Clouds: sky clear below 12,000 feet AGL
Weather: automated observation with no human augmentation;
there may or may not be significant weather present at this time

METAR text: KMNH 291456Z AUTO 23009KT 10SM CLR 20/10 A3035 RMK AO2
Conditions at: KMNH (MONUMENT/ELBERT , CO, US) observed 1456 UTC 29 June 2016
Temperature: 20.0°C (68°F)
Dewpoint: 10.0°C (50°F) [RH = 53%]
Pressure (altimeter): 30.35 inches Hg (1027.9 mb)
Winds: from the SW (230 degrees) at 10 MPH (9 knots; 4.7 m/s)
Visibility: 10 or more miles (16+ km)
Ceiling: at least 12,000 feet AGL
Clouds: sky clear below 12,000 feet AGL
Weather: automated observation with no human augmentation;
there may or may not be significant weather present at this time

METAR text: KMNH 291436Z AUTO 24010KT 10SM CLR 18/11 A3035 RMK AO2
Conditions at: KMNH (MONUMENT/ELBERT , CO, US) observed 1436 UTC 29 June 2016
Temperature: 18.0°C (64°F)
Dewpoint: 11.0°C (52°F) [RH = 64%]
Pressure (altimeter): 30.35 inches Hg (1027.9 mb)
Winds: from the WSW (240 degrees) at 12 MPH (10 knots; 5.2 m/s)
Visibility: 10 or more miles (16+ km)
Ceiling: at least 12,000 feet AGL
Clouds: sky clear below 12,000 feet AGL
Weather: automated observation with no human augmentation;
there may or may not be significant weather present at this time

METAR text: KMNH 291416Z AUTO 22011G15KT 10SM CLR 17/10 A3035 RMK AO2
Conditions at: KMNH (MONUMENT/ELBERT , CO, US) observed 1416 UTC 29 June 2016
Temperature: 17.0°C (63°F)
Dewpoint: 10.0°C (50°F) [RH = 63%]
Pressure (altimeter): 30.35 inches Hg (1027.9 mb)
Winds: from the SW (220 degrees) at 13 MPH (11 knots; 5.7 m/sgusting to 17 MPH (15 knots; 7.8 m/s)
Visibility: 10 or more miles (16+ km)
Ceiling: at least 12,000 feet AGL
Clouds: sky clear below 12,000 feet AGL
Weather: automated observation with no human augmentation;
there may or may not be significant weather present at this time

METAR text: KMNH 291357Z AUTO 21011G17KT 10SM CLR 16/10 A3035 RMK AO2
Conditions at: KMNH (MONUMENT/ELBERT , CO, US) observed 1357 UTC 29 June 2016
Temperature: 16.0°C (61°F)
Dewpoint: 10.0°C (50°F) [RH = 68%]
Pressure (altimeter): 30.35 inches Hg (1027.9 mb)
Winds: from the SSW (210 degrees) at 13 MPH (11 knots; 5.7 m/sgusting to 20 MPH (17 knots; 8.8 m/s)
Visibility: 10 or more miles (16+ km)
Ceiling: at least 12,000 feet AGL
Clouds: sky clear below 12,000 feet AGL
Weather: automated observation with no human augmentation;
there may or may not be significant weather present at this time

METAR text: KMNH 291337Z AUTO 20012G18KT 10SM CLR 15/09 A3034 RMK AO2
Conditions at: KMNH (MONUMENT/ELBERT , CO, US) observed 1337 UTC 29 June 2016
Temperature: 15.0°C (59°F)
Dewpoint: 9.0°C (48°F) [RH = 67%]
Pressure (altimeter): 30.34 inches Hg (1027.5 mb)
Winds: from the SSW (200 degrees) at 14 MPH (12 knots; 6.2 m/sgusting to 21 MPH (18 knots; 9.4 m/s)
Visibility: 10 or more miles (16+ km)
Ceiling: at least 12,000 feet AGL
Clouds: sky clear below 12,000 feet AGL
Weather: automated observation with no human augmentation;
there may or may not be significant weather present at this time

METAR text: KMNH 291315Z AUTO 20014KT 10SM CLR 15/09 A3035 RMK AO2
Conditions at: KMNH (MONUMENT/ELBERT , CO, US) observed 1315 UTC 29 June 2016
Temperature: 15.0°C (59°F)
Dewpoint: 9.0°C (48°F) [RH = 67%]
Pressure (altimeter): 30.35 inches Hg (1027.9 mb)
Winds: from the SSW (200 degrees) at 16 MPH (14 knots; 7.3 m/s)
Visibility: 10 or more miles (16+ km)
Ceiling: at least 12,000 feet AGL
Clouds: sky clear below 12,000 feet AGL
Weather: automated observation with no human augmentation;
there may or may not be significant weather present at this time

METAR text: KMNH 291256Z AUTO 19012KT 10SM CLR 14/09 A3035 RMK AO2
Conditions at: KMNH (MONUMENT/ELBERT , CO, US) observed 1256 UTC 29 June 2016
Temperature: 14.0°C (57°F)
Dewpoint: 9.0°C (48°F) [RH = 72%]
Pressure (altimeter): 30.35 inches Hg (1027.9 mb)
Winds: from the S (190 degrees) at 14 MPH (12 knots; 6.2 m/s)
Visibility: 10 or more miles (16+ km)
Ceiling: at least 12,000 feet AGL
Clouds: sky clear below 12,000 feet AGL
Weather: automated observation with no human augmentation;
there may or may not be significant weather present at this time

METAR text: KMNH 291236Z AUTO 19011KT 10SM CLR 12/08 A3035 RMK AO2
Conditions at: KMNH (MONUMENT/ELBERT , CO, US) observed 1236 UTC 29 June 2016
Temperature: 12.0°C (54°F)
Dewpoint: 8.0°C (46°F) [RH = 76%]
Pressure (altimeter): 30.35 inches Hg (1027.9 mb)
Winds: from the S (190 degrees) at 13 MPH (11 knots; 5.7 m/s)
Visibility: 10 or more miles (16+ km)
Ceiling: at least 12,000 feet AGL
Clouds: sky clear below 12,000 feet AGL
Weather: automated observation with no human augmentation;
there may or may not be significant weather present at this time

METAR text: KMNH 291217Z AUTO 19008KT 10SM CLR 10/08 A3035 RMK AO2
Conditions at: KMNH (MONUMENT/ELBERT , CO, US) observed 1217 UTC 29 June 2016
Temperature: 10.0°C (50°F)
Dewpoint: 8.0°C (46°F) [RH = 87%]
Pressure (altimeter): 30.35 inches Hg (1027.9 mb)
Winds: from the S (190 degrees) at 9 MPH (8 knots; 4.2 m/s)
Visibility: 10 or more miles (16+ km)
Ceiling: at least 12,000 feet AGL
Clouds: sky clear below 12,000 feet AGL
Weather: automated observation with no human augmentation;
there may or may not be significant weather present at this time

METAR text: KMNH 291157Z AUTO 18009KT 3SM BR SCT002 09/09 A3035 RMK AO2
Conditions at: KMNH (MONUMENT/ELBERT , CO, US) observed 1157 UTC 29 June 2016
Temperature: 9.0°C (48°F)
Dewpoint: 9.0°C (48°F) [RH = 100%]
Pressure (altimeter): 30.35 inches Hg (1027.9 mb)
Winds: from the S (180 degrees) at 10 MPH (9 knots; 4.7 m/s)
Visibility: 3 miles (5 km)
Ceiling: at least 12,000 feet AGL
Clouds: scattered clouds at 200 feet AGL
Weather: BR  (mist)

METAR text: KMNH 291137Z AUTO 19005KT 1/2SM FG OVC002 09/09 A3036 RMK AO2
Conditions at: KMNH (MONUMENT/ELBERT , CO, US) observed 1137 UTC 29 June 2016
Temperature: 9.0°C (48°F)
Dewpoint: 9.0°C (48°F) [RH = 100%]
Pressure (altimeter): 30.36 inches Hg (1028.2 mb)
Winds: from the S (190 degrees) at 6 MPH (5 knots; 2.6 m/s)
Visibility: 0.50 miles (0.80 km)
Ceiling: 200 feet AGL
Clouds: overcast cloud deck at 200 feet AGL
Weather: FG  (fog)

METAR text: KMNH 291115Z AUTO 19005KT 1/4SM FG OVC002 10/10 A3036 RMK AO2
Conditions at: KMNH (MONUMENT/ELBERT , CO, US) observed 1115 UTC 29 June 2016
Temperature: 10.0°C (50°F)
Dewpoint: 10.0°C (50°F) [RH = 100%]
Pressure (altimeter): 30.36 inches Hg (1028.2 mb)
Winds: from the S (190 degrees) at 6 MPH (5 knots; 2.6 m/s)
Visibility: 0.25 miles (0.40 km)
Ceiling: 200 feet AGL
Clouds: overcast cloud deck at 200 feet AGL
Weather: FG  (fog)

METAR text: KMNH 291056Z AUTO 00000KT 1/4SM FG OVC002 10/10 A3037 RMK AO2
Conditions at: KMNH (MONUMENT/ELBERT , CO, US) observed 1056 UTC 29 June 2016
Temperature: 10.0°C (50°F)
Dewpoint: 10.0°C (50°F) [RH = 100%]
Pressure (altimeter): 30.37 inches Hg (1028.5 mb)
Winds: calm
Visibility: 0.25 miles (0.40 km)
Ceiling: 200 feet AGL
Clouds: overcast cloud deck at 200 feet AGL
Weather: FG  (fog)

METAR text: KMNH 291036Z AUTO 24003KT 2 1/2SM BR OVC002 10/10 A3036 RMK AO2 VIS 1 1/2V4
Conditions at: KMNH (MONUMENT/ELBERT , CO, US) observed 1036 UTC 29 June 2016
Temperature: 10.0°C (50°F)
Dewpoint: 10.0°C (50°F) [RH = 100%]
Pressure (altimeter): 30.36 inches Hg (1028.2 mb)
Winds: from the WSW (240 degrees) at 3 MPH (3 knots; 1.6 m/s)
Visibility: 2.50 miles (4.02 km)
Ceiling: 200 feet AGL
Clouds: overcast cloud deck at 200 feet AGL
Weather: BR  (mist)

METAR text: KMNH 291016Z AUTO 24005KT 5SM BR OVC002 11/10 A3037 RMK AO2
Conditions at: KMNH (MONUMENT/ELBERT , CO, US) observed 1016 UTC 29 June 2016
Temperature: 11.0°C (52°F)
Dewpoint: 10.0°C (50°F) [RH = 94%]
Pressure (altimeter): 30.37 inches Hg (1028.5 mb)
Winds: from the WSW (240 degrees) at 6 MPH (5 knots; 2.6 m/s)
Visibility: 5 miles (8 km)
Ceiling: 200 feet AGL
Clouds: overcast cloud deck at 200 feet AGL
Weather: BR  (mist)

METAR text: KMNH 290955Z AUTO 28007KT 7SM OVC002 11/10 A3037 RMK AO2
Conditions at: KMNH (MONUMENT/ELBERT , CO, US) observed 0955 UTC 29 June 2016
Temperature: 11.0°C (52°F)
Dewpoint: 10.0°C (50°F) [RH = 94%]
Pressure (altimeter): 30.37 inches Hg (1028.5 mb)
Winds: from the W (280 degrees) at 8 MPH (7 knots; 3.6 m/s)
Visibility: 7 miles (11 km)
Ceiling: 200 feet AGL
Clouds: overcast cloud deck at 200 feet AGL
Weather: automated observation with no human augmentation;
there may or may not be significant weather present at this time

METAR text: KMNH 290936Z AUTO 28006KT 7SM OVC004 11/10 A3038 RMK AO2
Conditions at: KMNH (MONUMENT/ELBERT , CO, US) observed 0936 UTC 29 June 2016
Temperature: 11.0°C (52°F)
Dewpoint: 10.0°C (50°F) [RH = 94%]
Pressure (altimeter): 30.38 inches Hg (1028.9 mb)
Winds: from the W (280 degrees) at 7 MPH (6 knots; 3.1 m/s)
Visibility: 7 miles (11 km)
Ceiling: 400 feet AGL
Clouds: overcast cloud deck at 400 feet AGL
Weather: automated observation with no human augmentation;
there may or may not be significant weather present at this time

METAR text: KMNH 290916Z AUTO 30008KT 7SM BKN004 OVC007 11/11 A3038 RMK AO2
Conditions at: KMNH (MONUMENT/ELBERT , CO, US) observed 0916 UTC 29 June 2016
Temperature: 11.0°C (52°F)
Dewpoint: 11.0°C (52°F) [RH = 100%]
Pressure (altimeter): 30.38 inches Hg (1028.9 mb)
Winds: from the WNW (300 degrees) at 9 MPH (8 knots; 4.2 m/s)
Visibility: 7 miles (11 km)
Ceiling: 400 feet AGL
Clouds: broken clouds at 400 feet AGL
overcast cloud deck at 700 feet AGL
Weather: automated observation with no human augmentation;
there may or may not be significant weather present at this time